Terminal Aerodrome Forecast
Issued by NWS

Home | Current Version | Previous Version | Text Only | Print | Product List | Glossary On
Versions: 1 2 3 4 5 6 7 8 9 10 11 12 13 14 15 16 17
000
FTUS42 KMLB 020159 AAB
TAFISM
TAF AMD
KISM 020159Z 0202/0224 17008KT P6SM VCTS SCT030CB BKN100
     FM021400 21005KT P6SM SCT020 SCT050 BKN250=

USA.gov is the U.S. government's official web portal to all federal, state and local government web resources and services.